Yalta, Ukraine
Current Conditions -  °F | °C
As of 8:30 AM on Tuesday 21 Oct 2014 (Local Time) from URFF Reporting Station
Clear Clear  
Wind Chill: 55°   Ceiling: Unl
Heat Index: 55°   Visibility: 6mi
Dew Point: 50°   Wind: 13mph
Humidity: 82%   Direction: 190°S
Pressure: 29.91"   Gusts: NA
Location:  45.48°N, 34.17°E
Report Text: URFF 210530Z 19006MPS 140V230 CAVOK 13/10 Q1013 19010065 NOSIG
Loading
Personal Weather Stations






























Interactive Weather Map
Tropical Storm Tracking
New forecast layout! Learn more

10-Day Weather Forecast

Advertisements
Track Severe Weather on mobile